createdAt,value
2023-03-10T00:00:00.647Z,98550
2023-03-10T00:01:00.562Z,98550
2023-03-10T00:02:00.667Z,98550
2023-03-10T00:03:00.571Z,98550
2023-03-10T00:04:00.864Z,98550
2023-03-10T00:05:00.968Z,98550
2023-03-10T00:06:01.236Z,98540
2023-03-10T00:07:00.568Z,98540
2023-03-10T00:08:00.572Z,98540
2023-03-10T00:09:00.921Z,98540
2023-03-10T00:10:00.567Z,98540
2023-03-10T00:11:00.583Z,98540
2023-03-10T00:12:00.576Z,98530
2023-03-10T00:13:00.565Z,98530
2023-03-10T00:14:00.566Z,98530
2023-03-10T00:15:00.563Z,98530
2023-03-10T00:16:00.713Z,98520
2023-03-10T00:17:00.558Z,98520
2023-03-10T00:18:00.562Z,98520
2023-03-10T00:19:00.580Z,98520
2023-03-10T00:20:00.680Z,98520
2023-03-10T00:21:00.544Z,98520
2023-03-10T00:22:00.593Z,98530
2023-03-10T00:23:00.572Z,98530
2023-03-10T00:24:00.565Z,98530
2023-03-10T00:25:00.544Z,98530
2023-03-10T00:26:00.544Z,98530
2023-03-10T00:27:00.539Z,98530
2023-03-10T00:28:00.684Z,98530
2023-03-10T00:29:00.538Z,98530
2023-03-10T00:30:00.616Z,98540
2023-03-10T00:31:03.376Z,98540
2023-03-10T00:32:00.538Z,98540
2023-03-10T00:33:01.081Z,98540
2023-03-10T00:34:00.586Z,98540
2023-03-10T00:35:01.153Z,98540
2023-03-10T00:36:04.458Z,98540
2023-03-10T00:37:00.543Z,98540
2023-03-10T00:38:00.601Z,98540
2023-03-10T00:39:00.923Z,98540
2023-03-10T00:40:00.647Z,98530
2023-03-10T00:41:01.597Z,98530
2023-03-10T00:42:00.930Z,98530
2023-03-10T00:43:00.570Z,98530
2023-03-10T00:44:00.950Z,98540
2023-03-10T00:45:00.621Z,98540
2023-03-10T00:46:01.611Z,98530
2023-03-10T00:47:00.545Z,98530
2023-03-10T00:48:00.567Z,98530
2023-03-10T00:49:00.656Z,98530
2023-03-10T00:50:00.603Z,98520
2023-03-10T00:51:01.144Z,98520
2023-03-10T00:52:00.585Z,98530
2023-03-10T00:53:00.574Z,98530
2023-03-10T00:54:01.271Z,98530
2023-03-10T00:55:00.601Z,98530
2023-03-10T00:56:00.534Z,98530
2023-03-10T00:57:00.777Z,98530
2023-03-10T00:58:00.614Z,98530
2023-03-10T00:59:00.645Z,98530
2023-03-10T01:00:00.565Z,98540
2023-03-10T01:01:01.317Z,98540
2023-03-10T01:02:00.782Z,98540
2023-03-10T01:03:00.565Z,98540
2023-03-10T01:04:02.326Z,98540
2023-03-10T01:05:00.592Z,98540
2023-03-10T01:06:00.623Z,98540
2023-03-10T01:07:00.567Z,98540
2023-03-10T01:08:00.570Z,98540
2023-03-10T01:09:00.939Z,98540
2023-03-10T01:10:00.578Z,98540
2023-03-10T01:11:00.566Z,98540
2023-03-10T01:12:00.560Z,98540
2023-03-10T01:13:00.591Z,98540
2023-03-10T01:14:03.009Z,98540
2023-03-10T01:15:00.648Z,98540
2023-03-10T01:16:00.565Z,98540
2023-03-10T01:17:00.565Z,98540
2023-03-10T01:18:00.548Z,98540
2023-03-10T01:19:00.821Z,98540
2023-03-10T01:20:00.581Z,98530
2023-03-10T01:21:00.560Z,98530
2023-03-10T01:22:00.582Z,98530
2023-03-10T01:23:00.582Z,98530
2023-03-10T01:24:01.198Z,98530
2023-03-10T01:25:00.693Z,98530
2023-03-10T01:26:00.582Z,98530
2023-03-10T01:27:00.587Z,98530
2023-03-10T01:28:00.572Z,98530
2023-03-10T01:29:00.553Z,98530
2023-03-10T01:30:00.578Z,98520
2023-03-10T01:31:00.627Z,98520
2023-03-10T01:32:00.628Z,98520
2023-03-10T01:33:00.612Z,98520
2023-03-10T01:34:00.582Z,98520
2023-03-10T01:35:00.571Z,98520
2023-03-10T01:36:01.218Z,98520
2023-03-10T01:37:00.570Z,98520
2023-03-10T01:38:00.715Z,98520
2023-03-10T01:39:00.908Z,98520
2023-03-10T01:40:01.136Z,98510
2023-03-10T01:41:00.589Z,98510
2023-03-10T01:42:00.691Z,98510
2023-03-10T01:43:10.504Z,98510
2023-03-10T01:44:00.570Z,98510
2023-03-10T01:45:04.031Z,98510
2023-03-10T01:46:00.534Z,98510
2023-03-10T01:47:00.666Z,98510
2023-03-10T01:48:00.565Z,98500
2023-03-10T01:49:05.287Z,98500
2023-03-10T01:50:01.779Z,98500
2023-03-10T01:51:01.549Z,98500
2023-03-10T01:52:04.206Z,98500
2023-03-10T01:53:00.647Z,98500
2023-03-10T01:54:02.961Z,98500
2023-03-10T01:55:05.738Z,98500
2023-03-10T01:56:02.830Z,98500
2023-03-10T01:57:01.300Z,98500
2023-03-10T01:58:02.035Z,98500
2023-03-10T01:59:01.139Z,98500
2023-03-10T02:00:01.233Z,98500
2023-03-10T02:01:00.692Z,98500
2023-03-10T02:02:00.949Z,98490
2023-03-10T02:03:00.590Z,98490
2023-03-10T02:04:03.368Z,98480
2023-03-10T02:05:01.317Z,98480
2023-03-10T02:06:03.905Z,98490
2023-03-10T02:07:02.540Z,98490
2023-03-10T02:08:01.185Z,98480
2023-03-10T02:09:01.487Z,98480
2023-03-10T02:10:01.180Z,98470
2023-03-10T02:11:00.851Z,98470
2023-03-10T02:12:02.028Z,98470
2023-03-10T02:13:00.682Z,98470
2023-03-10T02:14:02.067Z,98480
2023-03-10T02:15:00.824Z,98480
2023-03-10T02:16:00.849Z,98470
2023-03-10T02:17:01.397Z,98470
2023-03-10T02:18:02.280Z,98480
2023-03-10T02:19:03.363Z,98480
2023-03-10T02:20:05.986Z,98480
2023-03-10T02:21:10.050Z,98480
2023-03-10T02:22:05.193Z,98480
2023-03-10T02:23:00.632Z,98480
2023-03-10T02:24:10.515Z,98490
2023-03-10T02:25:10.545Z,98490
2023-03-10T02:26:06.646Z,98490
2023-03-10T02:27:10.487Z,98490
2023-03-10T02:28:00.814Z,98490
2023-03-10T02:29:03.652Z,98490
2023-03-10T02:30:08.577Z,98480
2023-03-10T02:31:01.626Z,98480
2023-03-10T02:32:00.840Z,98480
2023-03-10T02:33:03.380Z,98480
2023-03-10T02:34:00.839Z,98470
2023-03-10T02:35:01.179Z,98470
2023-03-10T02:36:01.889Z,98470
2023-03-10T02:37:00.605Z,98470
2023-03-10T02:38:00.571Z,98470
2023-03-10T02:39:00.554Z,98470
2023-03-10T02:40:01.044Z,98470
2023-03-10T02:41:00.893Z,98470
2023-03-10T02:42:00.700Z,98460
2023-03-10T02:43:02.928Z,98460
2023-03-10T02:44:02.313Z,98460
2023-03-10T02:45:01.570Z,98460
2023-03-10T02:46:02.677Z,98460
2023-03-10T02:47:00.897Z,98460
2023-03-10T02:48:00.593Z,98460
2023-03-10T02:49:01.737Z,98460
2023-03-10T02:50:00.558Z,98450
2023-03-10T02:51:01.918Z,98450
2023-03-10T02:52:01.859Z,98450
2023-03-10T02:53:10.502Z,98450
2023-03-10T02:54:01.352Z,98450
2023-03-10T02:55:00.558Z,98450
2023-03-10T02:56:00.560Z,98450
2023-03-10T02:57:00.541Z,98450
2023-03-10T02:58:00.549Z,98440
2023-03-10T02:59:00.582Z,98440
2023-03-10T03:00:00.680Z,98440
2023-03-10T03:01:00.680Z,98440
2023-03-10T03:02:00.543Z,98440
2023-03-10T03:03:00.549Z,98440
2023-03-10T03:04:00.735Z,98430
2023-03-10T03:05:00.568Z,98430
2023-03-10T03:06:00.590Z,98430
2023-03-10T03:07:00.582Z,98430
2023-03-10T03:08:00.645Z,98430
2023-03-10T03:09:00.597Z,98430
2023-03-10T03:10:00.614Z,98440
2023-03-10T03:11:01.784Z,98440
2023-03-10T03:12:00.546Z,98440
2023-03-10T03:13:00.584Z,98440
2023-03-10T03:14:00.540Z,98430
2023-03-10T03:15:00.606Z,98430
2023-03-10T03:16:00.593Z,98430
2023-03-10T03:17:00.700Z,98430
2023-03-10T03:18:00.760Z,98420
2023-03-10T03:19:00.585Z,98420
2023-03-10T03:20:00.567Z,98420
2023-03-10T03:21:02.917Z,98420
2023-03-10T03:22:00.589Z,98420
2023-03-10T03:23:00.582Z,98420
2023-03-10T03:24:00.582Z,98430
2023-03-10T03:25:00.563Z,98430
2023-03-10T03:26:00.601Z,98420
2023-03-10T03:27:00.536Z,98420
2023-03-10T03:28:00.710Z,98420
2023-03-10T03:29:00.529Z,98420
2023-03-10T03:30:00.573Z,98430
2023-03-10T03:31:00.546Z,98430
2023-03-10T03:32:00.673Z,98420
2023-03-10T03:33:02.120Z,98420
2023-03-10T03:34:00.584Z,98420
2023-03-10T03:35:01.044Z,98420
2023-03-10T03:36:00.544Z,98420
2023-03-10T03:37:00.540Z,98420
2023-03-10T03:38:01.196Z,98420
2023-03-10T03:39:00.573Z,98420
2023-03-10T03:40:00.676Z,98420
2023-03-10T03:41:00.550Z,98420
2023-03-10T03:42:00.554Z,98430
2023-03-10T03:43:01.292Z,98430
2023-03-10T03:44:00.565Z,98420
2023-03-10T03:45:00.567Z,98420
2023-03-10T03:46:00.619Z,98420
2023-03-10T03:47:00.581Z,98420
2023-03-10T03:48:00.611Z,98420
2023-03-10T03:49:00.782Z,98420
2023-03-10T03:50:00.784Z,98420
2023-03-10T03:51:00.740Z,98420
2023-03-10T03:52:00.544Z,98410
2023-03-10T03:53:00.592Z,98410
2023-03-10T03:54:00.563Z,98410
2023-03-10T03:55:00.939Z,98410
2023-03-10T03:56:00.571Z,98410
2023-03-10T03:57:00.587Z,98410
2023-03-10T03:58:00.543Z,98410
2023-03-10T03:59:00.570Z,98410
2023-03-10T04:00:01.230Z,98420
2023-03-10T04:01:00.550Z,98420
2023-03-10T04:02:00.629Z,98410
2023-03-10T04:03:00.934Z,98410
2023-03-10T04:04:00.542Z,98420
2023-03-10T04:05:00.703Z,98420
2023-03-10T04:06:00.699Z,98420
2023-03-10T04:07:01.074Z,98420
2023-03-10T04:08:00.574Z,98420
2023-03-10T04:09:00.556Z,98420
2023-03-10T04:10:00.620Z,98410
2023-03-10T04:11:00.582Z,98410
2023-03-10T04:12:00.560Z,98410
2023-03-10T04:13:00.575Z,98410
2023-03-10T04:14:00.579Z,98410
2023-03-10T04:15:00.671Z,98410
2023-03-10T04:16:00.756Z,98410
2023-03-10T04:17:00.998Z,98410
2023-03-10T04:18:00.549Z,98400
2023-03-10T04:19:00.545Z,98400
2023-03-10T04:20:06.691Z,98400
2023-03-10T04:21:00.544Z,98400
2023-03-10T04:22:00.608Z,98400
2023-03-10T04:23:00.589Z,98400
2023-03-10T04:24:00.594Z,98400
2023-03-10T04:25:00.913Z,98400
2023-03-10T04:26:00.538Z,98400
2023-03-10T04:27:00.538Z,98400
2023-03-10T04:28:00.573Z,98400
2023-03-10T04:29:00.563Z,98400
2023-03-10T04:30:00.603Z,98410
2023-03-10T04:31:00.574Z,98410
2023-03-10T04:32:05.606Z,98410
2023-03-10T04:33:01.021Z,98410
2023-03-10T04:34:00.696Z,98410
2023-03-10T04:35:00.733Z,98410
2023-03-10T04:36:02.312Z,98400
2023-03-10T04:37:00.560Z,98400
2023-03-10T04:38:00.578Z,98400
2023-03-10T04:39:00.563Z,98400
2023-03-10T04:40:01.225Z,98400
2023-03-10T04:41:00.572Z,98400
2023-03-10T04:42:00.551Z,98400
2023-03-10T04:43:00.971Z,98400
2023-03-10T04:44:00.793Z,98400
2023-03-10T04:45:00.593Z,98400
2023-03-10T04:46:00.746Z,98400
2023-03-10T04:47:00.593Z,98400
2023-03-10T04:48:00.667Z,98390
2023-03-10T04:49:00.545Z,98390
2023-03-10T04:50:00.582Z,98390
2023-03-10T04:51:01.933Z,98390
2023-03-10T04:52:00.571Z,98390
2023-03-10T04:53:00.541Z,98390
2023-03-10T04:54:00.594Z,98380
2023-03-10T04:55:00.675Z,98380
2023-03-10T04:56:01.508Z,98380
2023-03-10T04:57:00.620Z,98380
2023-03-10T04:58:00.557Z,98380
2023-03-10T04:59:00.570Z,98380
2023-03-10T05:00:02.901Z,98380
2023-03-10T05:01:03.426Z,98380
2023-03-10T05:02:00.655Z,98380
2023-03-10T05:03:00.560Z,98380
2023-03-10T05:04:01.046Z,98380
2023-03-10T05:05:00.665Z,98380
2023-03-10T05:06:00.625Z,98380
2023-03-10T05:07:00.558Z,98380
2023-03-10T05:08:00.573Z,98380
2023-03-10T05:09:00.551Z,98380
2023-03-10T05:10:00.559Z,98380
2023-03-10T05:11:04.382Z,98380
2023-03-10T05:12:00.572Z,98380
2023-03-10T05:13:00.695Z,98380
2023-03-10T05:14:00.893Z,98380
2023-03-10T05:15:00.593Z,98380
2023-03-10T05:16:00.606Z,98370
2023-03-10T05:17:00.555Z,98370
2023-03-10T05:18:00.555Z,98370
2023-03-10T05:19:00.574Z,98370
2023-03-10T05:20:00.616Z,98370
2023-03-10T05:21:00.565Z,98370
2023-03-10T05:22:00.802Z,98370
2023-03-10T05:23:00.610Z,98370
2023-03-10T05:24:00.640Z,98370
2023-03-10T05:25:00.586Z,98370
2023-03-10T05:26:02.573Z,98370
2023-03-10T05:27:00.565Z,98370
2023-03-10T05:28:00.588Z,98370
2023-03-10T05:29:00.606Z,98370
2023-03-10T05:30:00.735Z,98370
2023-03-10T05:31:00.675Z,98370
2023-03-10T05:32:00.536Z,98370
2023-03-10T05:33:01.384Z,98370
2023-03-10T05:34:00.572Z,98370
2023-03-10T05:35:01.174Z,98370
2023-03-10T05:36:02.927Z,98370
2023-03-10T05:37:00.591Z,98370
2023-03-10T05:38:00.608Z,98370
2023-03-10T05:39:00.582Z,98370
2023-03-10T05:40:00.581Z,98370
2023-03-10T05:41:00.865Z,98370
2023-03-10T05:42:00.551Z,98380
2023-03-10T05:43:00.624Z,98380
2023-03-10T05:44:00.549Z,98380
2023-03-10T05:45:00.686Z,98380
2023-03-10T05:46:00.698Z,98380
2023-03-10T05:47:00.720Z,98380
2023-03-10T05:48:00.560Z,98380
2023-03-10T05:49:00.578Z,98380
2023-03-10T05:50:00.860Z,98380
2023-03-10T05:51:02.567Z,98380
2023-03-10T05:52:00.652Z,98380
2023-03-10T05:53:00.562Z,98380
2023-03-10T05:54:00.541Z,98390
2023-03-10T05:55:00.619Z,98390
2023-03-10T05:58:00.460Z,98390
2023-03-10T05:59:00.512Z,98390
2023-03-10T06:00:00.456Z,98390
2023-03-10T06:02:00.494Z,98390
2023-03-10T06:03:00.598Z,98390
2023-03-10T06:04:00.651Z,98390
2023-03-10T06:05:00.470Z,98390
2023-03-10T06:06:00.715Z,98380
2023-03-10T06:07:00.533Z,98380
2023-03-10T06:08:00.492Z,98380
2023-03-10T06:09:00.559Z,98380
2023-03-10T06:10:00.734Z,98380
2023-03-10T06:11:00.522Z,98380
2023-03-10T06:12:00.455Z,98380
2023-03-10T06:14:00.495Z,98380
2023-03-10T06:15:00.503Z,98380
2023-03-10T06:16:01.820Z,98380
2023-03-10T06:17:00.461Z,98380
2023-03-10T06:18:00.484Z,98380
2023-03-10T06:19:00.487Z,98380
2023-03-10T06:20:00.493Z,98380
2023-03-10T07:17:01.456Z,98420
2023-03-10T07:18:00.577Z,98420
2023-03-10T07:19:00.582Z,98420
2023-03-10T07:20:00.698Z,98420
2023-03-10T07:21:00.565Z,98420
2023-03-10T07:22:00.599Z,98420
2023-03-10T07:23:00.575Z,98420
2023-03-10T07:24:00.578Z,98420
2023-03-10T07:25:00.581Z,98420
2023-03-10T07:26:00.611Z,98410
2023-03-10T07:27:00.809Z,98410
2023-03-10T07:28:00.588Z,98420
2023-03-10T07:29:00.603Z,98420
2023-03-10T07:30:00.634Z,98420
2023-03-10T07:31:02.581Z,98420
2023-03-10T07:32:00.569Z,98430
2023-03-10T07:33:00.580Z,98430
2023-03-10T07:34:00.562Z,98430
2023-03-10T07:35:00.561Z,98430
2023-03-10T07:36:04.591Z,98440
2023-03-10T07:37:00.569Z,98440
2023-03-10T07:38:00.567Z,98440
2023-03-10T07:39:00.573Z,98440
2023-03-10T07:40:00.545Z,98440
2023-03-10T07:41:02.065Z,98440
2023-03-10T07:42:00.600Z,98440
2023-03-10T07:43:00.681Z,98440
2023-03-10T07:44:00.555Z,98450
2023-03-10T07:45:00.655Z,98450
2023-03-10T07:46:03.769Z,98450
2023-03-10T07:47:00.600Z,98450
2023-03-10T07:48:00.590Z,98460
2023-03-10T07:49:00.762Z,98460
2023-03-10T07:50:00.601Z,98460
2023-03-10T07:51:00.585Z,98460
2023-03-10T07:52:00.579Z,98450
2023-03-10T07:53:00.584Z,98450
2023-03-10T07:54:00.583Z,98450
2023-03-10T07:55:00.601Z,98450
2023-03-10T07:56:04.349Z,98450
2023-03-10T07:57:00.553Z,98450
2023-03-10T07:58:00.566Z,98450
2023-03-10T07:59:00.573Z,98450
2023-03-10T08:00:01.011Z,98450
2023-03-10T08:01:00.569Z,98450
2023-03-10T08:02:00.564Z,98450
2023-03-10T08:03:00.578Z,98450
2023-03-10T08:04:00.855Z,98450
2023-03-10T08:05:00.752Z,98450
2023-03-10T08:06:00.586Z,98450
2023-03-10T08:07:00.587Z,98450
2023-03-10T08:08:00.552Z,98450
2023-03-10T08:09:00.575Z,98450
2023-03-10T08:10:00.800Z,98460
2023-03-10T08:11:01.556Z,98460
2023-03-10T08:12:00.918Z,98460
2023-03-10T08:13:00.557Z,98460
2023-03-10T08:14:00.710Z,98450
2023-03-10T08:15:00.604Z,98450
2023-03-10T08:16:01.534Z,98450
2023-03-10T08:17:00.559Z,98450
2023-03-10T08:18:00.563Z,98450
2023-03-10T08:19:00.578Z,98450
2023-03-10T08:20:00.575Z,98450
2023-03-10T08:21:02.182Z,98450
2023-03-10T08:22:00.552Z,98450
2023-03-10T08:23:00.676Z,98450
2023-03-10T08:24:00.589Z,98450
2023-03-10T08:25:00.552Z,98450
2023-03-10T08:26:05.616Z,98450
2023-03-10T08:27:00.557Z,98450
2023-03-10T08:28:00.581Z,98450
2023-03-10T08:29:00.918Z,98450
2023-03-10T08:30:00.780Z,98460
2023-03-10T08:31:06.569Z,98460
2023-03-10T08:32:00.636Z,98460
2023-03-10T08:33:00.649Z,98460
2023-03-10T08:34:00.571Z,98460
2023-03-10T08:35:00.565Z,98460
2023-03-10T08:36:01.548Z,98460
2023-03-10T08:37:00.610Z,98460
2023-03-10T08:38:00.611Z,98460
2023-03-10T08:39:00.697Z,98460
2023-03-10T08:40:00.588Z,98460
2023-03-10T08:41:09.356Z,98460
2023-03-10T08:42:00.587Z,98460
2023-03-10T08:43:00.576Z,98460
2023-03-10T08:44:00.866Z,98460
2023-03-10T08:45:00.825Z,98460
2023-03-10T08:46:00.548Z,98460
2023-03-10T08:47:00.817Z,98460
2023-03-10T08:48:00.562Z,98460
2023-03-10T08:49:00.587Z,98460
2023-03-10T08:50:00.586Z,98460
2023-03-10T08:51:00.592Z,98460
2023-03-10T08:52:00.662Z,98460
2023-03-10T08:53:00.564Z,98460
2023-03-10T08:54:00.641Z,98460
2023-03-10T08:55:00.564Z,98460
2023-03-10T08:56:00.561Z,98460
2023-03-10T08:57:00.586Z,98460
2023-03-10T08:58:00.592Z,98460
2023-03-10T08:59:00.583Z,98460
2023-03-10T09:00:00.801Z,98460
2023-03-10T09:01:00.575Z,98460
2023-03-10T09:02:00.808Z,98460
2023-03-10T09:03:00.644Z,98460
2023-03-10T09:04:01.582Z,98460
2023-03-10T09:05:00.808Z,98460
2023-03-10T09:06:00.642Z,98460
2023-03-10T09:07:00.581Z,98460
2023-03-10T09:08:00.577Z,98460
2023-03-10T09:09:00.706Z,98460
2023-03-10T09:10:00.613Z,98460
2023-03-10T09:11:01.150Z,98460
2023-03-10T09:12:00.591Z,98450
2023-03-10T09:13:12.919Z,98450
2023-03-10T09:14:01.234Z,98450
2023-03-10T09:15:00.554Z,98450
2023-03-10T09:16:00.638Z,98450
2023-03-10T09:17:00.830Z,98450
2023-03-10T09:18:00.825Z,98450
2023-03-10T09:19:00.561Z,98450
2023-03-10T09:20:00.619Z,98460
2023-03-10T09:21:00.741Z,98460
2023-03-10T09:22:00.554Z,98460
2023-03-10T09:23:00.883Z,98460
2023-03-10T09:24:02.271Z,98450
2023-03-10T09:25:00.863Z,98450
2023-03-10T09:26:00.549Z,98450
2023-03-10T09:27:00.574Z,98450
2023-03-10T09:28:00.558Z,98450
2023-03-10T09:29:01.095Z,98450
2023-03-10T09:30:01.542Z,98450
2023-03-10T09:31:02.093Z,98450
2023-03-10T09:32:00.642Z,98450
2023-03-10T09:33:00.662Z,98450
2023-03-10T09:34:00.631Z,98450
2023-03-10T09:35:00.644Z,98450
2023-03-10T09:36:07.702Z,98460
2023-03-10T09:37:00.951Z,98460
2023-03-10T09:38:00.596Z,98460
2023-03-10T09:39:00.698Z,98460
2023-03-10T09:40:00.630Z,98460
2023-03-10T09:41:08.687Z,98460
2023-03-10T09:42:01.567Z,98450
2023-03-10T09:43:02.685Z,98450
2023-03-10T09:44:10.484Z,98450
2023-03-10T09:45:06.963Z,98450
2023-03-10T09:46:08.025Z,98450
2023-03-10T09:47:00.561Z,98450
2023-03-10T09:48:10.496Z,98440
2023-03-10T09:49:01.589Z,98440
2023-03-10T09:50:01.633Z,98440
2023-03-10T09:51:03.251Z,98440
2023-03-10T09:52:06.569Z,98450
2023-03-10T09:53:03.643Z,98450
2023-03-10T09:54:03.806Z,98450
2023-03-10T09:55:13.092Z,98450
2023-03-10T09:56:02.337Z,98450
2023-03-10T09:57:00.593Z,98450
2023-03-10T09:58:03.056Z,98450
2023-03-10T09:59:03.815Z,98450
2023-03-10T10:00:02.879Z,98450
2023-03-10T10:01:01.969Z,98450
2023-03-10T10:02:02.184Z,98450
2023-03-10T10:03:05.330Z,98450
2023-03-10T10:04:01.771Z,98460
2023-03-10T10:05:04.171Z,98460
2023-03-10T10:06:01.480Z,98450
2023-03-10T10:07:03.352Z,98450
2023-03-10T10:08:04.781Z,98450
2023-03-10T10:09:05.010Z,98450
2023-03-10T10:10:00.570Z,98450
2023-03-10T10:11:01.829Z,98450
2023-03-10T10:12:10.487Z,98450
2023-03-10T10:13:06.682Z,98450
2023-03-10T10:14:13.221Z,98460
2023-03-10T10:15:05.727Z,98460
2023-03-10T10:16:28.044Z,98460
2023-03-10T10:17:10.573Z,98460
2023-03-10T10:18:18.446Z,98460
2023-03-10T10:19:10.539Z,98460
2023-03-10T10:20:00.991Z,98460
2023-03-10T10:21:10.483Z,98460
2023-03-10T10:22:10.492Z,98470
2023-03-10T10:23:00.591Z,98470
2023-03-10T10:24:00.555Z,98470
2023-03-10T10:25:09.234Z,98470
2023-03-10T10:26:07.608Z,98480
2023-03-10T10:27:00.770Z,98480
2023-03-10T10:28:01.317Z,98480
2023-03-10T10:29:01.969Z,98480
2023-03-10T10:30:10.505Z,98480
2023-03-10T10:31:08.913Z,98480
2023-03-10T10:32:10.661Z,98490
2023-03-10T10:33:00.543Z,98490
2023-03-10T10:34:02.796Z,98480
2023-03-10T10:35:10.481Z,98480
2023-03-10T10:36:01.614Z,98480
2023-03-10T10:37:00.748Z,98480
2023-03-10T10:38:02.385Z,98480
2023-03-10T10:39:01.235Z,98480
2023-03-10T10:40:00.646Z,98480
2023-03-10T10:41:03.200Z,98480
2023-03-10T10:42:10.482Z,98470
2023-03-10T10:43:01.022Z,98470
2023-03-10T10:44:10.514Z,98470
2023-03-10T10:45:02.746Z,98470
2023-03-10T10:46:04.934Z,98470
2023-03-10T10:47:00.564Z,98470
2023-03-10T10:48:00.660Z,98480
2023-03-10T10:49:01.961Z,98480
2023-03-10T10:50:10.489Z,98480
2023-03-10T10:51:00.579Z,98480
2023-03-10T10:52:02.220Z,98480
2023-03-10T10:53:10.491Z,98480
2023-03-10T10:54:03.027Z,98470
2023-03-10T10:55:00.629Z,98470
2023-03-10T10:56:03.414Z,98470
2023-03-10T10:57:00.946Z,98470
2023-03-10T10:58:02.019Z,98470
2023-03-10T10:59:02.476Z,98470
2023-03-10T11:00:10.520Z,98480
2023-03-10T11:01:03.232Z,98480
2023-03-10T11:02:01.738Z,98470
2023-03-10T11:03:00.593Z,98470
2023-03-10T11:04:04.055Z,98470
2023-03-10T11:05:10.935Z,98470
2023-03-10T11:06:10.486Z,98470
2023-03-10T11:07:09.578Z,98470
2023-03-10T11:08:10.486Z,98470
2023-03-10T11:09:08.715Z,98470
2023-03-10T11:10:00.729Z,98470
2023-03-10T11:11:10.508Z,98470
2023-03-10T11:12:10.488Z,98470
2023-03-10T11:13:05.717Z,98470
2023-03-10T11:14:00.564Z,98470
2023-03-10T11:15:08.703Z,98470
2023-03-10T11:16:05.780Z,98470
2023-03-10T11:17:10.509Z,98470
2023-03-10T11:18:10.490Z,98470
2023-03-10T11:19:05.871Z,98470
2023-03-10T11:20:01.643Z,98470
2023-03-10T11:21:00.610Z,98470
2023-03-10T11:22:05.740Z,98460
2023-03-10T11:23:10.511Z,98460
2023-03-10T11:24:10.487Z,98460
2023-03-10T11:25:08.031Z,98460
2023-03-10T11:26:10.490Z,98460
2023-03-10T11:27:03.822Z,98460
2023-03-10T11:28:10.496Z,98450
2023-03-10T11:29:10.531Z,98450
2023-03-10T11:30:08.391Z,98450
2023-03-10T11:31:07.691Z,98450
2023-03-10T11:32:03.866Z,98440
2023-03-10T11:33:10.520Z,98440
2023-03-10T11:34:10.511Z,98440
2023-03-10T11:35:09.629Z,98440
2023-03-10T11:36:10.559Z,98450
2023-03-10T11:37:00.574Z,98450
2023-03-10T11:38:04.758Z,98440
2023-03-10T11:39:10.511Z,98440
2023-03-10T11:40:00.561Z,98440
2023-03-10T11:41:03.961Z,98440
2023-03-10T11:42:05.901Z,98440
2023-03-10T11:43:00.568Z,98440
2023-03-10T11:44:01.575Z,98430
2023-03-10T11:45:10.493Z,98430
2023-03-10T11:46:05.781Z,98430
2023-03-10T11:47:05.629Z,98430
2023-03-10T11:48:01.565Z,98430
2023-03-10T11:49:04.615Z,98430
2023-03-10T11:50:10.494Z,98420
2023-03-10T11:51:02.113Z,98420
2023-03-10T11:52:03.098Z,98420
2023-03-10T11:53:05.880Z,98420
2023-03-10T11:54:03.616Z,98410
2023-03-10T11:55:03.882Z,98410
2023-03-10T11:56:01.424Z,98410
2023-03-10T11:57:03.259Z,98410
2023-03-10T11:58:03.076Z,98410
2023-03-10T11:59:04.586Z,98410
2023-03-10T12:00:02.218Z,98400
2023-03-10T12:01:01.249Z,98400
2023-03-10T12:02:10.516Z,98400
2023-03-10T12:03:05.408Z,98400
2023-03-10T12:04:09.457Z,98390
2023-03-10T12:05:00.710Z,98390
2023-03-10T12:06:01.392Z,98390
2023-03-10T12:07:08.907Z,98390
2023-03-10T12:08:02.626Z,98390
2023-03-10T12:09:01.261Z,98390
2023-03-10T12:10:03.158Z,98390
2023-03-10T12:11:03.452Z,98390
2023-03-10T12:12:01.964Z,98390
2023-03-10T12:13:00.768Z,98390
2023-03-10T12:14:00.924Z,98380
2023-03-10T12:15:02.176Z,98380
2023-03-10T12:16:02.363Z,98390
2023-03-10T12:17:01.802Z,98390
2023-03-10T12:18:01.961Z,98390
2023-03-10T12:19:00.738Z,98390
2023-03-10T12:20:03.816Z,98390
2023-03-10T12:21:10.517Z,98390
2023-03-10T12:22:10.484Z,98390
2023-03-10T12:23:10.496Z,98390
2023-03-10T12:24:01.812Z,98400
2023-03-10T12:25:00.580Z,98400
2023-03-10T12:26:00.588Z,98390
2023-03-10T12:27:01.232Z,98390
2023-03-10T12:28:10.486Z,98390
2023-03-10T12:29:10.513Z,98390
2023-03-10T12:30:10.488Z,98380
2023-03-10T12:31:02.299Z,98380
2023-03-10T12:32:00.927Z,98390
2023-03-10T12:33:00.578Z,98390
2023-03-10T12:34:10.496Z,98380
2023-03-10T12:35:10.490Z,98380
2023-03-10T12:36:00.600Z,98380
2023-03-10T12:37:05.544Z,98380
2023-03-10T12:38:10.492Z,98380
2023-03-10T12:39:00.536Z,98380
2023-03-10T12:40:00.563Z,98380
2023-03-10T12:41:00.873Z,98380
2023-03-10T12:42:01.418Z,98380
2023-03-10T12:43:10.490Z,98380
2023-03-10T12:44:01.912Z,98370
2023-03-10T12:45:10.484Z,98370
2023-03-10T12:46:01.098Z,98370
2023-03-10T12:47:08.216Z,98370
2023-03-10T12:48:03.334Z,98370
2023-03-10T12:49:03.813Z,98370
2023-03-10T12:50:03.916Z,98380
2023-03-10T12:51:02.389Z,98380
2023-03-10T12:52:10.514Z,98380
2023-03-10T12:53:10.509Z,98380
2023-03-10T12:54:10.492Z,98370
2023-03-10T12:55:10.512Z,98370
2023-03-10T12:56:10.487Z,98390
2023-03-10T12:57:00.560Z,98390
2023-03-10T12:58:03.271Z,98400
2023-03-10T12:59:07.197Z,98400
2023-03-10T13:00:00.547Z,98390
2023-03-10T13:01:02.825Z,98390
2023-03-10T13:02:01.505Z,98390
2023-03-10T13:03:10.527Z,98390
2023-03-10T13:04:03.875Z,98380
2023-03-10T13:05:03.151Z,98380
2023-03-10T13:06:00.539Z,98370
2023-03-10T13:07:00.562Z,98370
2023-03-10T13:08:10.510Z,98370
2023-03-10T13:09:08.868Z,98370
2023-03-10T13:10:00.750Z,98380
2023-03-10T13:11:00.912Z,98380
2023-03-10T13:12:06.819Z,98370
2023-03-10T13:13:03.381Z,98370
2023-03-10T13:14:08.770Z,98370
2023-03-10T13:15:00.727Z,98370
2023-03-10T13:16:02.274Z,98380
2023-03-10T13:17:01.161Z,98380
2023-03-10T13:18:08.821Z,98390
2023-03-10T13:19:00.687Z,98390
2023-03-10T13:20:10.498Z,98390
2023-03-10T13:21:00.570Z,98390
2023-03-10T13:22:01.204Z,98390
2023-03-10T13:23:00.580Z,98390
2023-03-10T13:24:02.081Z,98390
2023-03-10T13:25:02.168Z,98390
2023-03-10T13:26:02.020Z,98390
2023-03-10T13:27:01.604Z,98390
2023-03-10T13:28:07.509Z,98390
2023-03-10T13:29:01.461Z,98390
2023-03-10T13:30:02.940Z,98390
2023-03-10T13:31:10.556Z,98390
2023-03-10T13:32:00.732Z,98390
2023-03-10T13:33:00.885Z,98390
2023-03-10T13:34:10.491Z,98400
2023-03-10T13:35:10.488Z,98400
2023-03-10T13:36:00.654Z,98420
2023-03-10T13:37:01.463Z,98420
2023-03-10T13:38:03.829Z,98420
2023-03-10T13:39:02.766Z,98420
2023-03-10T13:40:08.995Z,98430
2023-03-10T13:41:01.670Z,98430
2023-03-10T13:42:01.276Z,98430
2023-03-10T13:43:01.024Z,98430
2023-03-10T13:44:00.610Z,98460
2023-03-10T13:45:01.848Z,98460
2023-03-10T13:46:01.469Z,98450
2023-03-10T13:47:02.424Z,98450
2023-03-10T13:48:02.648Z,98470
2023-03-10T13:49:03.696Z,98470
2023-03-10T13:50:01.127Z,98470
2023-03-10T13:51:05.154Z,98470
2023-03-10T13:52:02.454Z,98470